sensor_id;sensor_type;location;lat;lon;timestamp;temperature;humidity
29007;DHT22;16104;48.642;9.008;2024-03-22T00:01:10;12.80;57.70
29007;DHT22;16104;48.642;9.008;2024-03-22T00:06:05;12.80;57.90
29007;DHT22;16104;48.642;9.008;2024-03-22T00:11:01;12.70;58.10
29007;DHT22;16104;48.642;9.008;2024-03-22T00:15:56;12.60;58.10
29007;DHT22;16104;48.642;9.008;2024-03-22T00:20:52;12.50;58.20
29007;DHT22;16104;48.642;9.008;2024-03-22T00:25:47;12.40;58.30
29007;DHT22;16104;48.642;9.008;2024-03-22T00:30:43;12.40;58.40
29007;DHT22;16104;48.642;9.008;2024-03-22T00:35:38;12.30;58.60
29007;DHT22;16104;48.642;9.008;2024-03-22T00:40:34;12.30;58.70
29007;DHT22;16104;48.642;9.008;2024-03-22T00:45:29;12.20;58.70
29007;DHT22;16104;48.642;9.008;2024-03-22T00:50:25;12.10;58.80
29007;DHT22;16104;48.642;9.008;2024-03-22T00:55:20;12.10;59.00
29007;DHT22;16104;48.642;9.008;2024-03-22T01:00:16;12.00;59.00
29007;DHT22;16104;48.642;9.008;2024-03-22T05:02:38;10.50;64.20
29007;DHT22;16104;48.642;9.008;2024-03-22T05:07:34;10.50;64.10
29007;DHT22;16104;48.642;9.008;2024-03-22T05:12:29;10.50;64.20
29007;DHT22;16104;48.642;9.008;2024-03-22T05:17:25;10.60;64.30
29007;DHT22;16104;48.642;9.008;2024-03-22T05:22:20;10.60;64.30
29007;DHT22;16104;48.642;9.008;2024-03-22T05:27:20;10.70;64.50
29007;DHT22;16104;48.642;9.008;2024-03-22T05:32:16;10.70;64.50
29007;DHT22;16104;48.642;9.008;2024-03-22T05:37:11;10.70;64.30
29007;DHT22;16104;48.642;9.008;2024-03-22T05:42:07;10.70;64.40
29007;DHT22;16104;48.642;9.008;2024-03-22T05:47:02;10.80;64.30
29007;DHT22;16104;48.642;9.008;2024-03-22T05:51:58;10.80;64.30
29007;DHT22;16104;48.642;9.008;2024-03-22T05:56:54;10.80;64.30
29007;DHT22;16104;48.642;9.008;2024-03-22T06:01:50;10.80;64.30
29007;DHT22;16104;48.642;9.008;2024-03-22T06:06:45;10.80;64.10
29007;DHT22;16104;48.642;9.008;2024-03-22T06:11:41;10.90;64.10
29007;DHT22;16104;48.642;9.008;2024-03-22T06:16:39;10.90;64.10
29007;DHT22;16104;48.642;9.008;2024-03-22T06:21:34;10.90;64.20
29007;DHT22;16104;48.642;9.008;2024-03-22T06:26:30;10.90;64.10
29007;DHT22;16104;48.642;9.008;2024-03-22T06:31:25;10.90;64.10
29007;DHT22;16104;48.642;9.008;2024-03-22T06:36:21;11.00;64.20
29007;DHT22;16104;48.642;9.008;2024-03-22T06:41:17;11.00;64.20
29007;DHT22;16104;48.642;9.008;2024-03-22T06:46:13;11.00;64.10
29007;DHT22;16104;48.642;9.008;2024-03-22T06:51:08;11.10;64.30
29007;DHT22;16104;48.642;9.008;2024-03-22T06:56:04;11.10;64.40
29007;DHT22;16104;48.642;9.008;2024-03-22T07:01:00;11.10;64.50
29007;DHT22;16104;48.642;9.008;2024-03-22T07:05:56;11.10;64.60
29007;DHT22;16104;48.642;9.008;2024-03-22T07:10:54;11.20;64.80
29007;DHT22;16104;48.642;9.008;2024-03-22T07:15:49;11.20;65.50
29007;DHT22;16104;48.642;9.008;2024-03-22T07:20:45;11.30;65.20
29007;DHT22;16104;48.642;9.008;2024-03-22T07:25:41;11.30;65.20
29007;DHT22;16104;48.642;9.008;2024-03-22T07:30:41;11.40;65.30
29007;DHT22;16104;48.642;9.008;2024-03-22T07:35:37;11.50;65.70
29007;DHT22;16104;48.642;9.008;2024-03-22T07:40:33;11.60;65.80
29007;DHT22;16104;48.642;9.008;2024-03-22T07:45:28;11.80;65.80
29007;DHT22;16104;48.642;9.008;2024-03-22T07:50:24;11.90;65.70
29007;DHT22;16104;48.642;9.008;2024-03-22T07:55:19;12.20;66.60
29007;DHT22;16104;48.642;9.008;2024-03-22T08:00:15;12.30;65.70
29007;DHT22;16104;48.642;9.008;2024-03-22T08:05:10;12.40;65.30
29007;DHT22;16104;48.642;9.008;2024-03-22T08:10:06;12.60;65.10
29007;DHT22;16104;48.642;9.008;2024-03-22T08:15:02;12.80;64.90
29007;DHT22;16104;48.642;9.008;2024-03-22T08:19:58;13.00;64.70
29007;DHT22;16104;48.642;9.008;2024-03-22T08:24:53;13.10;64.40
29007;DHT22;16104;48.642;9.008;2024-03-22T08:29:51;13.30;64.40
29007;DHT22;16104;48.642;9.008;2024-03-22T08:34:46;13.50;64.30
29007;DHT22;16104;48.642;9.008;2024-03-22T08:39:42;13.80;64.10
29007;DHT22;16104;48.642;9.008;2024-03-22T08:44:37;14.00;63.70
29007;DHT22;16104;48.642;9.008;2024-03-22T08:49:33;14.30;63.10
29007;DHT22;16104;48.642;9.008;2024-03-22T08:54:28;14.50;62.50
29007;DHT22;16104;48.642;9.008;2024-03-22T08:59:24;14.70;61.80
29007;DHT22;16104;48.642;9.008;2024-03-22T09:04:20;14.90;61.10
29007;DHT22;16104;48.642;9.008;2024-03-22T09:09:15;15.10;61.20
29007;DHT22;16104;48.642;9.008;2024-03-22T09:14:12;15.30;60.40
29007;DHT22;16104;48.642;9.008;2024-03-22T09:19:07;15.50;59.70
29007;DHT22;16104;48.642;9.008;2024-03-22T09:24:03;15.80;59.40
29007;DHT22;16104;48.642;9.008;2024-03-22T09:28:59;16.00;58.40
29007;DHT22;16104;48.642;9.008;2024-03-22T09:33:54;16.30;57.70
29007;DHT22;16104;48.642;9.008;2024-03-22T09:38:50;16.50;57.60
29007;DHT22;16104;48.642;9.008;2024-03-22T09:43:47;16.90;56.80
29007;DHT22;16104;48.642;9.008;2024-03-22T09:48:45;17.10;56.00
29007;DHT22;16104;48.642;9.008;2024-03-22T09:53:44;17.40;55.30
29007;DHT22;16104;48.642;9.008;2024-03-22T09:58:44;17.60;54.30
29007;DHT22;16104;48.642;9.008;2024-03-22T10:03:40;17.80;54.30
29007;DHT22;16104;48.642;9.008;2024-03-22T10:08:35;18.00;54.50
29007;DHT22;16104;48.642;9.008;2024-03-22T10:13:32;18.20;53.90
29007;DHT22;16104;48.642;9.008;2024-03-22T10:18:28;18.50;53.40
29007;DHT22;16104;48.642;9.008;2024-03-22T10:23:25;18.60;52.70
29007;DHT22;16104;48.642;9.008;2024-03-22T10:28:21;18.80;52.70
29007;DHT22;16104;48.642;9.008;2024-03-22T10:33:18;18.90;52.00
29007;DHT22;16104;48.642;9.008;2024-03-22T10:38:15;19.20;51.30
29007;DHT22;16104;48.642;9.008;2024-03-22T10:43:16;19.40;51.90
29007;DHT22;16104;48.642;9.008;2024-03-22T10:48:13;19.60;50.90
29007;DHT22;16104;48.642;9.008;2024-03-22T10:53:23;19.80;49.60
29007;DHT22;16104;48.642;9.008;2024-03-22T10:58:24;19.90;49.10
29007;DHT22;16104;48.642;9.008;2024-03-22T11:03:21;20.10;48.90
29007;DHT22;16104;48.642;9.008;2024-03-22T11:08:27;20.10;49.20
29007;DHT22;16104;48.642;9.008;2024-03-22T11:13:23;20.20;48.00
29007;DHT22;16104;48.642;9.008;2024-03-22T11:18:18;20.30;49.00
29007;DHT22;16104;48.642;9.008;2024-03-22T11:23:14;20.40;49.30
29007;DHT22;16104;48.642;9.008;2024-03-22T11:28:09;20.60;49.10
29007;DHT22;16104;48.642;9.008;2024-03-22T11:33:05;20.80;49.10
29007;DHT22;16104;48.642;9.008;2024-03-22T11:38:03;21.10;49.30
29007;DHT22;16104;48.642;9.008;2024-03-22T11:43:00;21.40;48.30
29007;DHT22;16104;48.642;9.008;2024-03-22T11:47:56;21.70;47.50
29007;DHT22;16104;48.642;9.008;2024-03-22T11:52:52;22.10;48.40
29007;DHT22;16104;48.642;9.008;2024-03-22T11:57:49;22.40;47.20
29007;DHT22;16104;48.642;9.008;2024-03-22T12:02:45;22.70;45.80
29007;DHT22;16104;48.642;9.008;2024-03-22T12:07:41;23.00;45.90
29007;DHT22;16104;48.642;9.008;2024-03-22T12:12:36;23.30;45.80
29007;DHT22;16104;48.642;9.008;2024-03-22T12:17:32;23.40;45.60
29007;DHT22;16104;48.642;9.008;2024-03-22T12:22:28;23.50;44.10
29007;DHT22;16104;48.642;9.008;2024-03-22T12:27:24;23.60;43.70
29007;DHT22;16104;48.642;9.008;2024-03-22T12:32:19;23.60;43.00
29007;DHT22;16104;48.642;9.008;2024-03-22T12:37:16;23.70;42.90
29007;DHT22;16104;48.642;9.008;2024-03-22T12:42:11;23.70;43.50
29007;DHT22;16104;48.642;9.008;2024-03-22T12:47:07;23.80;43.00
29007;DHT22;16104;48.642;9.008;2024-03-22T12:52:02;23.90;42.20
29007;DHT22;16104;48.642;9.008;2024-03-22T12:56:59;24.00;41.90
29007;DHT22;16104;48.642;9.008;2024-03-22T13:01:54;24.10;41.60
29007;DHT22;16104;48.642;9.008;2024-03-22T13:06:50;24.20;41.40
29007;DHT22;16104;48.642;9.008;2024-03-22T13:11:46;24.40;42.30
29007;DHT22;16104;48.642;9.008;2024-03-22T13:16:42;24.60;41.80
29007;DHT22;16104;48.642;9.008;2024-03-22T13:21:37;24.90;41.50
29007;DHT22;16104;48.642;9.008;2024-03-22T13:26:33;25.10;40.30
29007;DHT22;16104;48.642;9.008;2024-03-22T13:31:28;25.20;39.20
29007;DHT22;16104;48.642;9.008;2024-03-22T13:36:24;25.30;39.40
29007;DHT22;16104;48.642;9.008;2024-03-22T13:41:21;25.30;37.70
29007;DHT22;16104;48.642;9.008;2024-03-22T13:46:16;25.20;37.00
29007;DHT22;16104;48.642;9.008;2024-03-22T13:51:12;25.20;36.90
29007;DHT22;16104;48.642;9.008;2024-03-22T13:56:08;25.30;38.00
29007;DHT22;16104;48.642;9.008;2024-03-22T14:01:03;25.60;38.70
29007;DHT22;16104;48.642;9.008;2024-03-22T14:06:00;25.90;37.50
29007;DHT22;16104;48.642;9.008;2024-03-22T14:10:56;26.10;37.00
29007;DHT22;16104;48.642;9.008;2024-03-22T14:15:51;26.50;36.70
29007;DHT22;16104;48.642;9.008;2024-03-22T14:20:46;26.70;34.60
29007;DHT22;16104;48.642;9.008;2024-03-22T14:25:42;26.90;34.10
29007;DHT22;16104;48.642;9.008;2024-03-22T14:30:41;27.00;33.60
29007;DHT22;16104;48.642;9.008;2024-03-22T14:35:37;27.10;32.20
29007;DHT22;16104;48.642;9.008;2024-03-22T14:40:33;27.00;31.90
29007;DHT22;16104;48.642;9.008;2024-03-22T14:45:32;26.80;32.30
29007;DHT22;16104;48.642;9.008;2024-03-22T14:50:27;26.50;31.40
29007;DHT22;16104;48.642;9.008;2024-03-22T14:55:23;26.20;30.60
29007;DHT22;16104;48.642;9.008;2024-03-22T15:00:18;25.90;31.40
29007;DHT22;16104;48.642;9.008;2024-03-22T15:05:14;25.60;30.20
29007;DHT22;16104;48.642;9.008;2024-03-22T15:10:10;25.40;31.10
29007;DHT22;16104;48.642;9.008;2024-03-22T15:15:06;25.20;30.10
29007;DHT22;16104;48.642;9.008;2024-03-22T15:20:03;25.10;31.10
29007;DHT22;16104;48.642;9.008;2024-03-22T15:24:59;24.90;30.40
29007;DHT22;16104;48.642;9.008;2024-03-22T15:29:55;24.70;30.60
29007;DHT22;16104;48.642;9.008;2024-03-22T15:34:50;24.50;30.80
29007;DHT22;16104;48.642;9.008;2024-03-22T15:39:46;24.40;31.20
29007;DHT22;16104;48.642;9.008;2024-03-22T15:44:41;24.20;30.60
29007;DHT22;16104;48.642;9.008;2024-03-22T15:49:37;23.90;30.60
29007;DHT22;16104;48.642;9.008;2024-03-22T15:54:32;23.70;30.60
29007;DHT22;16104;48.642;9.008;2024-03-22T15:59:28;23.50;30.30
29007;DHT22;16104;48.642;9.008;2024-03-22T16:04:23;23.30;30.80
29007;DHT22;16104;48.642;9.008;2024-03-22T16:09:20;23.00;32.00
29007;DHT22;16104;48.642;9.008;2024-03-22T16:14:16;22.80;31.50
29007;DHT22;16104;48.642;9.008;2024-03-22T16:19:11;22.60;31.80
29007;DHT22;16104;48.642;9.008;2024-03-22T16:24:07;22.40;32.20
29007;DHT22;16104;48.642;9.008;2024-03-22T16:29:03;22.20;33.00
29007;DHT22;16104;48.642;9.008;2024-03-22T16:33:58;22.10;33.40
29007;DHT22;16104;48.642;9.008;2024-03-22T16:38:54;21.90;33.50
29007;DHT22;16104;48.642;9.008;2024-03-22T16:43:49;21.80;33.90
29007;DHT22;16104;48.642;9.008;2024-03-22T16:48:45;21.60;34.10
29007;DHT22;16104;48.642;9.008;2024-03-22T16:53:41;21.50;34.30
29007;DHT22;16104;48.642;9.008;2024-03-22T16:58:36;21.40;34.40
29007;DHT22;16104;48.642;9.008;2024-03-22T17:03:32;21.20;34.80
29007;DHT22;16104;48.642;9.008;2024-03-22T17:08:27;21.10;35.00
29007;DHT22;16104;48.642;9.008;2024-03-22T17:13:24;20.90;35.50
29007;DHT22;16104;48.642;9.008;2024-03-22T17:18:20;20.90;35.70
29007;DHT22;16104;48.642;9.008;2024-03-22T17:23:15;20.70;36.30
29007;DHT22;16104;48.642;9.008;2024-03-22T17:28:11;20.60;36.80
29007;DHT22;16104;48.642;9.008;2024-03-22T17:33:07;20.50;36.50
29007;DHT22;16104;48.642;9.008;2024-03-22T17:38:02;20.40;36.70
29007;DHT22;16104;48.642;9.008;2024-03-22T17:42:58;20.40;37.20
29007;DHT22;16104;48.642;9.008;2024-03-22T17:47:53;20.30;37.10
29007;DHT22;16104;48.642;9.008;2024-03-22T17:52:49;20.20;37.30
29007;DHT22;16104;48.642;9.008;2024-03-22T17:57:44;20.10;37.20
29007;DHT22;16104;48.642;9.008;2024-03-22T18:02:41;20.10;37.60
29007;DHT22;16104;48.642;9.008;2024-03-22T18:07:36;20.00;37.50
29007;DHT22;16104;48.642;9.008;2024-03-22T18:12:32;19.90;37.70
29007;DHT22;16104;48.642;9.008;2024-03-22T18:17:27;19.80;38.10
29007;DHT22;16104;48.642;9.008;2024-03-22T18:22:23;19.70;38.20
29007;DHT22;16104;48.642;9.008;2024-03-22T18:27:18;19.50;38.50
29007;DHT22;16104;48.642;9.008;2024-03-22T18:32:14;19.40;38.70
29007;DHT22;16104;48.642;9.008;2024-03-22T18:37:09;19.30;38.90
29007;DHT22;16104;48.642;9.008;2024-03-22T18:42:05;19.20;39.00
29007;DHT22;16104;48.642;9.008;2024-03-22T18:47:00;19.00;39.30
29007;DHT22;16104;48.642;9.008;2024-03-22T18:51:56;18.90;39.70
29007;DHT22;16104;48.642;9.008;2024-03-22T18:56:51;18.70;39.90
29007;DHT22;16104;48.642;9.008;2024-03-22T19:01:47;18.60;40.10
29007;DHT22;16104;48.642;9.008;2024-03-22T19:06:42;18.40;40.30
29007;DHT22;16104;48.642;9.008;2024-03-22T19:11:38;18.30;40.50
29007;DHT22;16104;48.642;9.008;2024-03-22T19:16:33;18.10;40.80
29007;DHT22;16104;48.642;9.008;2024-03-22T19:21:29;18.00;41.10
29007;DHT22;16104;48.642;9.008;2024-03-22T19:26:25;17.80;41.40
29007;DHT22;16104;48.642;9.008;2024-03-22T19:31:21;17.70;41.60
29007;DHT22;16104;48.642;9.008;2024-03-22T19:36:17;17.60;42.00
29007;DHT22;16104;48.642;9.008;2024-03-22T19:41:13;17.50;42.30
29007;DHT22;16104;48.642;9.008;2024-03-22T19:46:09;17.30;42.60
29007;DHT22;16104;48.642;9.008;2024-03-22T19:51:04;17.20;42.90
29007;DHT22;16104;48.642;9.008;2024-03-22T19:56:04;17.00;43.00
29007;DHT22;16104;48.642;9.008;2024-03-22T20:01:01;16.90;43.30
29007;DHT22;16104;48.642;9.008;2024-03-22T20:05:57;16.70;43.40
29007;DHT22;16104;48.642;9.008;2024-03-22T20:10:52;16.60;43.80
29007;DHT22;16104;48.642;9.008;2024-03-22T20:15:48;16.50;43.90
29007;DHT22;16104;48.642;9.008;2024-03-22T20:20:44;16.40;44.80
29007;DHT22;16104;48.642;9.008;2024-03-22T20:25:39;16.20;44.30
29007;DHT22;16104;48.642;9.008;2024-03-22T20:30:35;16.10;44.40
29007;DHT22;16104;48.642;9.008;2024-03-22T20:35:30;16.00;44.60
